createdAt,value
2018-04-18T00:01:26.983Z,8.80
2018-04-18T00:03:54.832Z,8.70
2018-04-18T00:06:22.316Z,8.70
2018-04-18T00:08:51.349Z,8.70
2018-04-18T00:11:19.025Z,8.60
2018-04-18T00:13:46.521Z,8.60
2018-04-18T00:16:14.776Z,8.50
2018-04-18T00:18:42.276Z,8.50
2018-04-18T00:21:09.858Z,8.50
2018-04-18T00:23:37.693Z,8.50
2018-04-18T00:26:05.205Z,8.40
2018-04-18T00:28:32.694Z,8.40
2018-04-18T00:31:01.371Z,8.30
2018-04-18T00:33:28.984Z,8.40
2018-04-18T00:35:56.472Z,8.30
2018-04-18T00:38:23.969Z,8.30
2018-04-18T00:40:52.140Z,8.30
2018-04-18T00:43:19.801Z,8.20
2018-04-18T00:45:47.686Z,8.20
2018-04-18T00:48:15.177Z,8.10
2018-04-18T00:50:42.797Z,8.10
2018-04-18T00:53:10.282Z,8.10
2018-04-18T00:55:38.345Z,8.00
2018-04-18T00:58:05.837Z,8.00
2018-04-18T01:00:33.336Z,8.00
2018-04-18T01:03:02.124Z,7.90
2018-04-18T01:05:29.766Z,7.90
2018-04-18T01:07:57.441Z,7.80
2018-04-18T01:10:26.481Z,7.80
2018-04-18T01:12:54.002Z,7.80
2018-04-18T01:15:21.686Z,7.70
2018-04-18T01:17:49.202Z,7.70
2018-04-18T01:20:17.298Z,7.70
2018-04-18T01:22:45.095Z,7.70
2018-04-18T01:25:12.596Z,7.70
2018-04-18T01:27:40.088Z,7.60
2018-04-18T01:30:08.150Z,7.60
2018-04-18T01:32:36.029Z,7.60
2018-04-18T01:35:03.884Z,7.60
2018-04-18T01:37:31.383Z,7.60
2018-04-18T01:39:58.902Z,7.50
2018-04-18T01:42:26.808Z,7.50
2018-04-18T01:44:54.320Z,7.50
2018-04-18T01:47:21.871Z,7.50
2018-04-18T01:49:50.162Z,7.40
2018-04-18T01:52:17.890Z,7.40
2018-04-18T01:54:45.797Z,7.40
2018-04-18T01:57:13.646Z,7.30
2018-04-18T01:59:41.497Z,7.30
2018-04-18T02:02:09.269Z,7.30
2018-04-18T02:04:37.661Z,7.20
2018-04-18T02:07:05.164Z,7.20
2018-04-18T02:09:32.666Z,7.20
2018-04-18T02:12:01.905Z,7.20
2018-04-18T02:14:29.523Z,7.20
2018-04-18T02:16:57.801Z,7.20
2018-04-18T02:19:26.410Z,7.10
2018-04-18T02:21:53.954Z,7.10
2018-04-18T02:24:21.709Z,7.10
2018-04-18T02:26:49.329Z,7.10
2018-04-18T02:29:16.862Z,7.10
2018-04-18T02:31:45.642Z,7.00
2018-04-18T02:34:13.130Z,7.00
2018-04-18T02:36:40.848Z,7.00
2018-04-18T02:39:08.330Z,7.10
2018-04-18T02:41:35.813Z,7.00
2018-04-18T02:44:03.309Z,7.00
2018-04-18T02:46:31.001Z,7.00
2018-04-18T02:48:58.798Z,6.90
2018-04-18T02:51:26.334Z,6.90
2018-04-18T02:53:53.844Z,6.90
2018-04-18T02:56:22.154Z,6.80
2018-04-18T02:58:49.816Z,6.80
2018-04-18T03:01:17.316Z,6.80
2018-04-18T03:03:45.929Z,6.80
2018-04-18T03:06:13.425Z,6.80
2018-04-18T03:08:41.361Z,6.80
2018-04-18T03:11:09.112Z,6.80
2018-04-18T03:13:38.118Z,6.70
2018-04-18T03:16:05.604Z,6.80
2018-04-18T03:18:33.092Z,6.70
2018-04-18T03:21:00.687Z,6.70
2018-04-18T03:23:28.449Z,6.70
2018-04-18T03:25:56.705Z,6.70
2018-04-18T03:28:25.729Z,6.70
2018-04-18T03:30:53.679Z,6.70
2018-04-18T03:33:21.725Z,6.70
2018-04-18T03:35:49.203Z,6.70
2018-04-18T03:38:17.189Z,6.70
2018-04-18T03:40:47.027Z,6.60
2018-04-18T03:43:14.500Z,6.60
2018-04-18T03:45:42.346Z,6.50
2018-04-18T03:48:10.197Z,6.50
2018-04-18T03:50:37.686Z,6.40
2018-04-18T03:53:05.193Z,6.40
2018-04-18T03:55:33.446Z,6.40
2018-04-18T03:58:01.274Z,6.40
2018-04-18T04:00:29.110Z,6.40
2018-04-18T04:02:56.598Z,6.40
2018-04-18T04:05:24.675Z,6.30
2018-04-18T04:07:52.586Z,6.20
2018-04-18T04:10:20.090Z,6.20
2018-04-18T04:12:47.623Z,6.10
2018-04-18T04:15:15.715Z,6.10
2018-04-18T04:17:55.020Z,6.10
2018-04-18T04:20:34.587Z,6.10
2018-04-18T04:23:13.730Z,6.10
2018-04-18T04:25:41.700Z,6.10
2018-04-18T04:28:09.557Z,6.10
2018-04-18T04:30:37.615Z,6.10
2018-04-18T04:33:05.603Z,6.10
2018-04-18T04:35:33.232Z,6.20
2018-04-18T04:38:00.732Z,6.20
2018-04-18T04:40:28.355Z,6.20
2018-04-18T04:42:56.133Z,6.20
2018-04-18T04:45:23.687Z,6.30
2018-04-18T04:47:51.179Z,6.30
2018-04-18T04:50:18.804Z,6.40
2018-04-18T04:52:46.309Z,6.50
2018-04-18T04:55:14.125Z,6.50
2018-04-18T04:57:41.792Z,6.60
2018-04-18T05:00:09.280Z,6.60
2018-04-18T05:02:36.956Z,6.60
2018-04-18T05:05:06.609Z,6.70
2018-04-18T05:07:34.098Z,6.70
2018-04-18T05:10:02.022Z,6.80
2018-04-18T05:12:30.275Z,6.90
2018-04-18T05:14:58.898Z,6.80
2018-04-18T05:17:26.587Z,6.90
2018-04-18T05:19:54.084Z,7.00
2018-04-18T05:22:22.168Z,7.10
2018-04-18T05:24:50.064Z,7.20
2018-04-18T05:27:18.675Z,7.30
2018-04-18T05:29:46.705Z,7.30
2018-04-18T05:32:14.207Z,7.40
2018-04-18T05:34:42.229Z,7.50
2018-04-18T05:37:09.749Z,7.60
2018-04-18T05:39:37.674Z,7.70
2018-04-18T05:42:05.624Z,7.80
2018-04-18T05:44:34.007Z,8.00
2018-04-18T05:47:01.493Z,8.00
2018-04-18T05:49:28.980Z,8.10
2018-04-18T05:51:56.580Z,8.30
2018-04-18T05:54:24.932Z,8.50
2018-04-18T05:56:53.034Z,8.50
2018-04-18T05:59:21.727Z,8.90
2018-04-18T06:01:49.386Z,8.90
2018-04-18T06:04:17.719Z,9.10
2018-04-18T06:06:45.208Z,9.50
2018-04-18T06:09:13.810Z,12.10
2018-04-18T06:11:41.317Z,12.10
2018-04-18T06:14:09.275Z,14.20
2018-04-18T06:16:36.802Z,15.90
2018-04-18T06:19:04.743Z,17.60
2018-04-18T06:21:33.083Z,19.90
2018-04-18T06:24:00.595Z,19.90
2018-04-18T06:26:28.332Z,20.00
2018-04-18T06:28:57.236Z,20.40
2018-04-18T06:31:24.918Z,20.30
2018-04-18T06:33:52.412Z,20.80
2018-04-18T06:36:20.534Z,20.60
2018-04-18T06:38:48.828Z,20.20
2018-04-18T06:41:16.393Z,20.20
2018-04-18T06:43:44.343Z,20.00
2018-04-18T06:46:11.849Z,20.10
2018-04-18T06:48:39.666Z,20.50
2018-04-18T06:51:07.173Z,20.70
2018-04-18T06:53:34.900Z,21.80
2018-04-18T06:56:02.578Z,22.90
2018-04-18T06:58:30.067Z,23.80
2018-04-18T07:00:57.863Z,24.40
2018-04-18T07:03:26.312Z,24.70
2018-04-18T07:05:54.426Z,24.80
2018-04-18T07:08:21.970Z,25.10
2018-04-18T07:10:49.477Z,25.90
2018-04-18T07:13:17.398Z,26.10
2018-04-18T07:15:45.284Z,26.50
2018-04-18T07:18:12.764Z,26.90
2018-04-18T07:20:40.274Z,26.30
2018-04-18T07:23:08.928Z,27.20
2018-04-18T07:25:36.729Z,27.20
2018-04-18T07:28:05.743Z,28.30
2018-04-18T07:30:33.501Z,28.30
2018-04-18T07:33:01.018Z,28.80
2018-04-18T07:35:29.349Z,28.30
2018-04-18T07:37:56.846Z,29.10
2018-04-18T07:40:24.750Z,28.90
2018-04-18T07:42:53.954Z,28.40
2018-04-18T07:45:21.716Z,28.30
2018-04-18T07:47:49.369Z,28.30
2018-04-18T07:50:16.871Z,28.30
2018-04-18T07:52:44.381Z,28.90
2018-04-18T07:55:11.929Z,27.90
2018-04-18T07:57:40.730Z,27.80
2018-04-18T08:00:08.228Z,27.80
2018-04-18T08:02:36.064Z,28.00
2018-04-18T08:05:03.755Z,28.60
2018-04-18T08:07:31.516Z,28.90
2018-04-18T08:09:59.001Z,29.30
2018-04-18T08:12:26.517Z,29.50
2018-04-18T08:14:54.019Z,29.00
2018-04-18T08:17:21.968Z,29.00
2018-04-18T08:19:49.733Z,29.60
2018-04-18T08:22:17.230Z,29.80
2018-04-18T08:24:45.255Z,30.00
2018-04-18T08:27:13.056Z,30.60
2018-04-18T08:29:40.547Z,30.80
2018-04-18T08:32:08.044Z,30.70
2018-04-18T08:34:35.524Z,30.00
2018-04-18T08:37:03.462Z,29.20
2018-04-18T08:39:30.942Z,30.10
2018-04-18T08:41:58.439Z,30.50
2018-04-18T08:44:26.955Z,30.30
2018-04-18T08:46:54.444Z,30.30
2018-04-18T08:49:23.232Z,30.10
2018-04-18T08:51:50.721Z,30.90
2018-04-18T08:54:18.224Z,31.60
2018-04-18T08:56:45.717Z,31.30
2018-04-18T08:59:13.222Z,31.10
2018-04-18T09:01:40.732Z,31.30
2018-04-18T09:04:08.253Z,31.10
2018-04-18T09:06:36.660Z,30.70
2018-04-18T09:09:04.185Z,31.10
2018-04-18T09:11:31.715Z,31.30
2018-04-18T09:14:00.106Z,32.00
2018-04-18T09:16:27.817Z,32.00
2018-04-18T09:18:55.337Z,31.40
2018-04-18T09:21:23.219Z,31.70
2018-04-18T09:23:51.019Z,30.30
2018-04-18T09:26:19.444Z,30.00
2018-04-18T09:28:47.088Z,29.90
2018-04-18T09:31:15.459Z,29.60
2018-04-18T09:33:43.719Z,31.00
2018-04-18T09:36:11.227Z,31.00
2018-04-18T09:38:38.743Z,30.40
2018-04-18T09:41:07.386Z,30.10
2018-04-18T09:43:34.889Z,30.10
2018-04-18T09:46:03.509Z,30.40
2018-04-18T09:48:31.075Z,30.40
2018-04-18T09:50:58.895Z,30.20
2018-04-18T09:53:27.180Z,30.70
2018-04-18T09:55:55.196Z,30.70
2018-04-18T09:58:22.768Z,29.90
2018-04-18T10:00:56.195Z,29.30
2018-04-18T10:03:23.908Z,29.60
2018-04-18T10:05:52.259Z,29.90
2018-04-18T10:08:19.957Z,29.60
2018-04-18T10:10:48.011Z,29.50
2018-04-18T10:13:15.975Z,29.90
2018-04-18T10:15:43.568Z,30.20
2018-04-18T10:18:11.370Z,30.30
2018-04-18T10:20:40.213Z,30.40
2018-04-18T10:23:09.061Z,30.40
2018-04-18T10:25:36.949Z,30.70
2018-04-18T10:28:04.485Z,30.40
2018-04-18T10:30:31.958Z,30.80
2018-04-18T10:32:59.449Z,30.00
2018-04-18T10:35:26.969Z,29.30
2018-04-18T10:37:54.818Z,30.10
2018-04-18T10:40:22.594Z,30.10
2018-04-18T10:42:50.111Z,30.70
2018-04-18T13:45:29.186Z,24.40
2018-04-18T13:47:56.720Z,24.40
2018-04-18T13:50:24.227Z,24.40
2018-04-18T13:52:51.844Z,24.10
2018-04-18T13:55:19.660Z,23.80
2018-04-18T13:57:47.465Z,23.80
2018-04-18T14:00:15.066Z,24.00
2018-04-18T14:02:42.831Z,24.00
2018-04-18T14:05:10.356Z,24.00
2018-04-18T14:07:38.221Z,23.80
2018-04-18T14:10:05.770Z,23.80
2018-04-18T14:12:33.342Z,23.90
2018-04-18T14:15:00.842Z,23.60
2018-04-18T14:17:28.670Z,23.50
2018-04-18T14:19:56.933Z,23.60
2018-04-18T14:22:24.438Z,23.80
2018-04-18T14:24:52.339Z,23.80
2018-04-18T14:27:20.423Z,23.80
2018-04-18T14:29:48.228Z,23.70
2018-04-18T14:32:15.890Z,23.70
2018-04-18T14:34:43.624Z,23.70
2018-04-18T14:37:12.432Z,23.60
2018-04-18T14:39:44.126Z,23.50
2018-04-18T14:42:12.071Z,23.50
2018-04-18T14:44:39.589Z,23.50
2018-04-18T14:47:07.312Z,23.40
2018-04-18T14:49:35.200Z,23.30
2018-04-18T14:52:04.335Z,23.20
2018-04-18T14:54:31.986Z,23.10
2018-04-18T14:56:59.489Z,23.20
2018-04-18T14:59:27.230Z,23.10
2018-04-18T15:01:54.722Z,23.00
2018-04-18T15:04:22.584Z,22.90
2018-04-18T15:06:50.095Z,23.10
2018-04-18T15:09:18.127Z,23.20
2018-04-18T15:11:45.674Z,23.30
2018-04-18T15:14:13.362Z,23.00
2018-04-18T15:16:40.922Z,22.60
2018-04-18T15:19:08.431Z,22.20
2018-04-18T15:21:36.162Z,22.20
2018-04-18T15:24:03.698Z,22.20
2018-04-18T15:26:31.456Z,22.30
2018-04-18T15:28:58.962Z,22.30
2018-04-18T15:31:26.975Z,22.30
2018-04-18T15:33:54.497Z,22.20
2018-04-18T15:36:22.651Z,22.20
2018-04-18T15:38:50.482Z,22.20
2018-04-18T15:41:18.338Z,22.10
2018-04-18T15:43:46.020Z,22.10
2018-04-18T15:46:13.539Z,22.20
2018-04-18T15:48:41.082Z,22.20
2018-04-18T15:51:08.596Z,22.10
2018-04-18T15:53:36.332Z,22.10
2018-04-18T15:56:04.427Z,21.90
2018-04-18T15:58:31.943Z,21.90
2018-04-18T16:01:00.316Z,21.70
2018-04-18T16:03:28.781Z,21.70
2018-04-18T16:05:56.430Z,21.70
2018-04-18T16:08:24.207Z,21.70
2018-04-18T16:10:52.208Z,21.70
2018-04-18T16:13:20.026Z,21.70
2018-04-18T16:15:48.205Z,21.70
2018-04-18T16:18:16.436Z,21.70
2018-04-18T16:20:44.020Z,21.60
2018-04-18T16:23:11.646Z,21.50
2018-04-18T16:25:39.625Z,21.50
2018-04-18T16:28:08.082Z,21.40
2018-04-18T16:30:42.626Z,21.30
2018-04-18T16:33:10.773Z,21.30
2018-04-18T16:35:41.420Z,21.20
2018-04-18T16:38:09.116Z,21.20
2018-04-18T16:40:36.624Z,21.20
2018-04-18T16:43:04.206Z,21.10
2018-04-18T16:45:31.841Z,21.10
2018-04-18T16:47:59.779Z,21.10
2018-04-18T16:50:27.606Z,21.00
2018-04-18T16:52:55.774Z,21.00
2018-04-18T16:55:23.303Z,20.90
2018-04-18T16:57:51.410Z,20.80
2018-04-18T17:00:19.472Z,20.70
2018-04-18T17:02:47.848Z,20.60
2018-04-18T17:05:16.314Z,20.60
2018-04-18T17:07:44.067Z,20.60
2018-04-18T17:10:12.801Z,20.50
2018-04-18T17:12:41.318Z,20.30
2018-04-18T17:15:09.744Z,20.30
2018-04-18T17:17:37.652Z,20.30
2018-04-18T17:20:05.301Z,20.20
2018-04-18T17:22:33.244Z,20.10
2018-04-18T17:25:00.960Z,20.00
2018-04-18T17:27:29.167Z,20.00
2018-04-18T17:29:57.847Z,19.90
2018-04-18T17:32:26.886Z,19.70
2018-04-18T17:34:55.029Z,19.70
2018-04-18T17:37:22.818Z,19.60
2018-04-18T17:39:50.445Z,19.50
2018-04-18T17:42:18.857Z,19.40
2018-04-18T17:44:46.346Z,19.30
2018-04-18T17:47:13.865Z,19.10
2018-04-18T17:49:41.601Z,19.00
2018-04-18T17:52:09.481Z,18.90
2018-04-18T17:54:37.110Z,18.80
2018-04-18T17:57:05.735Z,18.60
2018-04-18T17:59:34.339Z,18.40
2018-04-18T18:02:01.835Z,18.40
2018-04-18T18:04:29.477Z,18.30
2018-04-18T18:06:58.141Z,18.20
2018-04-18T18:09:26.528Z,18.10
2018-04-18T18:11:54.606Z,17.90
2018-04-18T18:14:23.896Z,17.80
2018-04-18T18:16:52.763Z,17.70
2018-04-18T18:19:21.628Z,17.50
2018-04-18T18:21:49.376Z,17.50
2018-04-18T18:24:17.049Z,17.40
2018-04-18T18:26:44.926Z,17.30
2018-04-18T18:29:14.183Z,17.20
2018-04-18T18:31:41.699Z,17.20
2018-04-18T18:34:09.979Z,17.00
2018-04-18T18:36:38.675Z,17.00
2018-04-18T18:39:07.918Z,16.90
2018-04-18T18:41:36.310Z,16.90
2018-04-18T18:44:04.413Z,16.80
2018-04-18T18:46:32.316Z,16.80
2018-04-18T18:49:00.998Z,16.70
2018-04-18T18:51:28.515Z,16.60
2018-04-18T18:53:56.908Z,16.50
2018-04-18T18:56:26.163Z,16.40
2018-04-18T18:58:53.792Z,16.30
2018-04-18T19:01:21.611Z,16.20
2018-04-18T19:03:51.113Z,16.10
2018-04-18T19:06:18.617Z,16.10
2018-04-18T19:08:48.557Z,16.00
2018-04-18T19:11:16.504Z,16.00
2018-04-18T19:13:44.015Z,15.90
2018-04-18T19:16:11.501Z,15.90
2018-04-18T19:18:39.318Z,15.90
2018-04-18T19:21:09.607Z,16.00
2018-04-18T19:23:37.141Z,16.00
2018-04-18T19:26:05.288Z,16.00
2018-04-18T19:28:33.647Z,15.90
2018-04-18T19:31:01.868Z,15.90
2018-04-18T19:33:30.140Z,15.70
2018-04-18T19:36:01.989Z,15.70
2018-04-18T19:38:30.105Z,15.70
2018-04-18T19:40:57.644Z,15.50
2018-04-18T19:43:25.744Z,15.40
2018-04-18T19:45:53.801Z,15.30
2018-04-18T19:48:21.305Z,15.20
2018-04-18T19:50:49.069Z,15.10
2018-04-18T19:53:16.989Z,15.00
2018-04-18T19:55:44.492Z,15.00
2018-04-18T19:58:12.111Z,15.00
2018-04-18T20:00:40.037Z,15.00
2018-04-18T20:03:07.525Z,15.00
2018-04-18T20:05:35.287Z,14.90
2018-04-18T20:08:04.106Z,14.60
2018-04-18T20:10:31.627Z,14.60
2018-04-18T20:12:59.129Z,14.50
2018-04-18T20:15:26.643Z,14.40
2018-04-18T20:17:55.862Z,14.10
2018-04-18T20:20:23.940Z,14.10
2018-04-18T20:22:51.451Z,14.00
2018-04-18T20:25:19.720Z,13.90
2018-04-18T20:27:47.235Z,13.90
2018-04-18T20:30:14.789Z,13.80
2018-04-18T20:32:42.943Z,13.70
2018-04-18T20:35:10.489Z,13.60
2018-04-18T20:37:38.036Z,13.50
2018-04-18T20:40:05.797Z,13.50
2018-04-18T20:42:33.349Z,13.40
2018-04-18T20:45:01.269Z,13.40
2018-04-18T20:47:29.138Z,13.30
2018-04-18T20:49:57.103Z,13.20
2018-04-18T20:52:24.629Z,13.10
2018-04-18T20:54:53.181Z,13.00
2018-04-18T20:57:20.693Z,13.00
2018-04-18T20:59:50.091Z,13.00
2018-04-18T21:02:17.660Z,12.90
2018-04-18T21:04:46.294Z,12.80
2018-04-18T21:07:14.192Z,12.70
2018-04-18T21:09:41.866Z,12.60
2018-04-18T21:12:09.363Z,12.60
2018-04-18T21:14:37.002Z,12.50
2018-04-18T21:17:04.523Z,12.40
2018-04-18T21:19:32.428Z,12.30
2018-04-18T21:21:59.975Z,12.30
2018-04-18T21:24:27.728Z,12.20
2018-04-18T21:26:55.615Z,12.20
2018-04-18T21:29:24.105Z,12.20
2018-04-18T21:31:51.843Z,12.20
2018-04-18T21:34:19.508Z,12.20
2018-04-18T21:36:47.296Z,12.10
2018-04-18T21:39:14.890Z,12.10
2018-04-18T21:41:42.633Z,12.00
2018-04-18T21:44:10.457Z,12.00
2018-04-18T21:46:37.953Z,11.90
2018-04-18T21:49:05.774Z,11.90
2018-04-18T21:51:33.330Z,11.90
2018-04-18T21:54:02.575Z,11.90
2018-04-18T21:56:30.493Z,11.80
2018-04-18T21:58:59.100Z,11.80
2018-04-18T22:01:26.945Z,11.80
2018-04-18T22:03:54.611Z,11.80
2018-04-18T22:06:22.687Z,11.80
2018-04-18T22:08:50.537Z,11.60
2018-04-18T22:11:18.031Z,11.60
2018-04-18T22:13:45.817Z,11.50
2018-04-18T22:16:14.361Z,11.40
2018-04-18T22:18:41.864Z,11.40
2018-04-18T22:21:09.903Z,11.30
2018-04-18T22:23:37.398Z,11.30
2018-04-18T22:26:05.171Z,11.10
2018-04-18T22:28:32.677Z,11.10
2018-04-18T22:31:00.445Z,11.10
2018-04-18T22:33:28.204Z,11.00
2018-04-18T22:35:55.808Z,10.90
2018-04-18T22:38:23.819Z,10.90
2018-04-18T22:40:51.480Z,10.80
2018-04-18T22:43:18.961Z,10.80
2018-04-18T22:45:47.269Z,10.70
2018-04-18T22:48:14.810Z,10.70
2018-04-18T22:50:42.660Z,10.60
2018-04-18T22:53:10.497Z,10.60
2018-04-18T22:55:38.577Z,10.60
2018-04-18T22:58:06.163Z,10.60
2018-04-18T23:00:34.088Z,10.50
2018-04-18T23:03:01.588Z,10.50
2018-04-18T23:05:29.432Z,10.50
2018-04-18T23:07:57.033Z,10.50
2018-04-18T23:10:24.551Z,10.40
2018-04-18T23:12:52.405Z,10.40
2018-04-18T23:15:21.002Z,10.20
2018-04-18T23:17:48.729Z,10.20
2018-04-18T23:20:16.326Z,10.20
2018-04-18T23:22:43.816Z,10.10
2018-04-18T23:25:11.463Z,10.10
2018-04-18T23:27:39.107Z,10.10
2018-04-18T23:30:06.783Z,10.10
2018-04-18T23:32:34.303Z,10.10
2018-04-18T23:35:02.653Z,10.00
2018-04-18T23:37:30.577Z,10.00
2018-04-18T23:39:58.249Z,10.00
2018-04-18T23:42:26.285Z,10.00
2018-04-18T23:44:53.768Z,9.90
2018-04-18T23:47:22.003Z,9.90
2018-04-18T23:49:50.996Z,9.70
2018-04-18T23:52:18.485Z,9.70
2018-04-18T23:54:45.993Z,9.70
2018-04-18T23:57:13.720Z,9.70
2018-04-18T23:59:41.234Z,9.60
